Time;durP1;ratioP1;P1;durP2;ratioP2;P2;SDS_P1;SDS_P2;PMS_P1;PMS_P2;Temp;Humidity;BMP_temperature;BMP_pressure;BME280_temperature;BME280_humidity;BME280_pressure;Samples;Min_cycle;Max_cycle;Signal;HPM_P1;HPM_P2
2022/07/03 00:01:31;;;;;;;1.80;1.70;;;;;;;27.13;46.88;95506.66;5015191;28;20226;-66
2022/07/03 00:03:58;;;;;;;1.23;1.07;;;;;;;26.90;47.49;95505.66;5019674;28;20189;-68
2022/07/03 00:06:26;;;;;;;0.33;0.33;;;;;;;27.09;46.97;95494.25;5030950;28;20197;-67
2022/07/03 00:08:54;;;;;;;0.70;0.70;;;;;;;27.02;47.12;95497.53;5011355;28;20281;-69
2022/07/03 00:11:20;;;;;;;1.60;1.23;;;;;;;27.09;47.02;95503.09;5025120;28;20194;-68
2022/07/03 00:13:47;;;;;;;0.57;0.57;;;;;;;27.24;46.55;95504.25;5022932;28;20196;-67
2022/07/03 00:16:14;;;;;;;6.03;2.13;;;;;;;27.34;46.46;95499.16;5034478;28;20226;-68
2022/07/03 00:18:41;;;;;;;0.50;0.50;;;;;;;27.21;46.53;95502.25;5040525;28;20224;-68
2022/07/03 00:21:10;;;;;;;1.70;1.03;;;;;;;27.27;46.38;95508.94;5046490;28;20663;-66
2022/07/03 00:23:46;;;;;;;0.97;0.97;;;;;;;27.00;47.08;95497.88;5050526;28;20730;-66
2022/07/03 00:26:13;;;;;;;1.13;1.03;;;;;;;26.71;47.20;95500.94;5022620;28;20260;-67
2022/07/03 00:28:41;;;;;;;3.27;3.00;;;;;;;26.91;47.38;95494.56;5050676;28;20679;-68
2022/07/03 00:31:09;;;;;;;1.70;1.37;;;;;;;27.19;46.77;95491.06;5049792;28;20200;-68
2022/07/03 00:33:36;;;;;;;0.97;0.97;;;;;;;27.13;46.78;95489.75;5037508;28;20196;-66
2022/07/03 00:36:04;;;;;;;1.50;1.17;;;;;;;27.02;46.85;95487.53;5037183;28;20690;-69
2022/07/03 00:38:31;;;;;;;0.60;0.60;;;;;;;26.97;47.24;95482.41;5035560;28;20216;-67
2022/07/03 00:40:59;;;;;;;1.17;1.07;;;;;;;26.85;47.24;95473.63;5038908;28;20193;-67
2022/07/03 00:43:26;;;;;;;7.73;1.57;;;;;;;27.06;47.12;95482.28;5034206;28;20282;-68
2022/07/03 00:45:53;;;;;;;0.57;0.57;;;;;;;26.94;46.64;95472.34;5030753;28;20619;-66
2022/07/03 00:48:21;;;;;;;0.80;0.80;;;;;;;26.86;46.70;95467.91;5024619;28;20193;-67
2022/07/03 00:50:51;;;;;;;0.80;0.80;;;;;;;26.91;46.41;95470.38;5027557;28;20208;-67
2022/07/03 00:53:32;;;;;;;0.33;0.33;;;;;;;26.82;46.89;95480.47;5033835;28;20300;-67
2022/07/03 00:56:00;;;;;;;2.60;1.67;;;;;;;26.83;46.73;95465.91;5010807;28;20287;-67
2022/07/03 00:58:28;;;;;;;2.10;0.77;;;;;;;26.78;46.57;95462.69;5010552;28;20269;-68
2022/07/03 01:00:55;;;;;;;1.37;1.10;;;;;;;26.75;46.76;95469.53;5032089;28;20231;-67
2022/07/03 01:03:26;;;;;;;1.40;1.30;;;;;;;26.78;46.84;95468.88;5032989;28;20197;-66
2022/07/03 01:05:55;;;;;;;0.70;0.70;;;;;;;26.87;46.44;95466.81;5039716;28;20804;-70
2022/07/03 01:08:43;;;;;;;2.37;1.13;;;;;;;26.95;45.97;95468.53;5031791;28;20252;-67
2022/07/03 01:11:16;;;;;;;1.47;1.37;;;;;;;26.78;46.46;95468.88;5032343;28;20200;-68
2022/07/03 01:13:55;;;;;;;0.50;0.50;;;;;;;26.68;46.70;95463.16;5038803;28;20755;-68
2022/07/03 01:16:34;;;;;;;1.50;1.40;;;;;;;26.63;46.63;95463.41;5043726;28;20739;-68
2022/07/03 01:19:37;;;;;;;0.80;0.77;;;;;;;26.27;47.43;95463.53;5030039;28;20258;-68
2022/07/03 01:22:16;;;;;;;1.47;1.37;;;;;;;26.58;46.74;95464.44;5008840;28;20632;-68
2022/07/03 01:24:55;;;;;;;0.80;0.80;;;;;;;26.47;46.99;95458.00;5027376;28;20220;-67
2022/07/03 01:27:40;;;;;;;1.60;0.97;;;;;;;26.43;47.13;95456.31;5041409;28;20258;-67
2022/07/03 01:30:10;;;;;;;0.40;0.40;;;;;;;26.21;47.67;95460.31;5010435;28;20707;-69
2022/07/03 01:32:45;;;;;;;0.20;0.20;;;;;;;26.12;47.98;95461.56;5035284;28;20196;-68
2022/07/03 01:35:21;;;;;;;0.87;0.63;;;;;;;26.13;47.69;95453.16;5049214;28;20659;-67
2022/07/03 01:37:50;;;;;;;0.80;0.80;;;;;;;26.31;47.68;95454.47;5023153;28;20309;-68
2022/07/03 01:40:18;;;;;;;1.00;0.97;;;;;;;26.33;47.87;95449.50;5037292;28;20608;-68
2022/07/03 01:42:45;;;;;;;0.53;0.53;;;;;;;26.31;47.35;95451.78;5033668;28;20317;-67
2022/07/03 01:45:15;;;;;;;0.97;0.77;;;;;;;25.86;47.70;95443.91;5049156;28;20246;-67
2022/07/03 01:47:46;;;;;;;1.60;1.27;;;;;;;25.95;48.02;95458.00;5049662;28;20254;-67
2022/07/03 01:50:14;;;;;;;0.30;0.30;;;;;;;26.20;47.76;95457.97;5018053;28;20243;-67
2022/07/03 01:52:44;;;;;;;0.90;0.80;;;;;;;26.04;47.91;95455.97;5029297;28;20232;-67
2022/07/03 01:55:14;;;;;;;1.70;1.37;;;;;;;26.14;47.37;95454.72;5034107;28;20304;-67
2022/07/03 01:57:50;;;;;;;0.30;0.30;;;;;;;26.29;47.15;95454.03;5034325;28;20223;-69
2022/07/03 02:00:21;;;;;;;0.73;0.73;;;;;;;26.40;46.80;95460.50;5049092;28;20196;-68
2022/07/03 02:03:01;;;;;;;1.13;1.00;;;;;;;26.24;46.86;95459.63;5050368;28;20251;-67
2022/07/03 02:05:42;;;;;;;0.77;0.77;;;;;;;26.41;46.24;95453.97;5026133;28;20204;-67
2022/07/03 02:08:29;;;;;;;0.83;0.43;;;;;;;26.67;45.59;95473.13;5031731;28;20217;-68
2022/07/03 02:11:19;;;;;;;0.53;0.53;;;;;;;26.45;46.27;95459.44;5041107;28;20327;-68
2022/07/03 02:13:52;;;;;;;0.43;0.40;;;;;;;26.57;46.27;95454.78;5036864;28;20212;-68
2022/07/03 02:16:22;;;;;;;0.77;0.77;;;;;;;26.52;46.32;95462.31;5020437;28;20251;-67
2022/07/03 02:19:04;;;;;;;0.33;0.33;;;;;;;26.75;45.69;95458.78;5044078;28;20655;-68
2022/07/03 02:21:33;;;;;;;0.80;0.80;;;;;;;26.67;45.60;95457.00;5024924;28;20197;-68
2022/07/03 02:24:09;;;;;;;1.23;0.87;;;;;;;26.78;45.23;95458.09;5053310;28;20200;-68
2022/07/03 02:26:42;;;;;;;0.40;0.40;;;;;;;27.01;45.02;95455.59;5038521;28;20253;-67
2022/07/03 02:29:14;;;;;;;0.53;0.43;;;;;;;27.09;44.82;95459.25;5053277;28;20235;-67
2022/07/03 02:31:48;;;;;;;1.17;1.07;;;;;;;27.16;44.90;95456.75;5039065;28;20192;-68
2022/07/03 02:34:17;;;;;;;0.23;0.23;;;;;;;27.10;44.71;95452.78;5052532;28;20257;-69
2022/07/03 02:36:48;;;;;;;0.40;0.40;;;;;;;26.73;45.07;95463.72;5043421;28;20194;-66
2022/07/03 02:39:43;;;;;;;0.60;0.60;;;;;;;26.73;45.26;95476.41;5035391;28;20322;-67
2022/07/03 02:42:29;;;;;;;0.57;0.50;;;;;;;26.85;44.64;95469.06;5027714;28;20615;-69
2022/07/03 02:45:01;;;;;;;0.77;0.77;;;;;;;26.94;44.68;95471.56;5020502;28;20206;-69
2022/07/03 02:47:46;;;;;;;0.40;0.40;;;;;;;27.08;44.39;95468.47;5030469;28;20236;-67
2022/07/03 02:50:20;;;;;;;1.20;1.10;;;;;;;27.17;44.26;95464.47;5052409;28;20192;-67
2022/07/03 02:52:56;;;;;;;0.40;0.40;;;;;;;27.22;44.21;95466.13;5052640;28;20236;-69
2022/07/03 02:55:27;;;;;;;1.07;0.67;;;;;;;26.98;45.06;95473.25;5016468;28;20233;-68
2022/07/03 02:58:19;;;;;;;1.23;1.13;;;;;;;26.76;45.67;95476.50;5040668;28;20232;-67
2022/07/03 03:01:03;;;;;;;0.30;0.30;;;;;;;26.91;45.07;95481.13;5031879;28;20197;-67
2022/07/03 03:03:30;;;;;;;1.57;1.20;;;;;;;26.92;44.82;95474.59;5047582;28;20221;-68
2022/07/03 03:06:08;;;;;;;0.50;0.50;;;;;;;26.85;45.11;95474.44;5021974;28;20194;-68
2022/07/03 03:08:55;;;;;;;1.00;0.67;;;;;;;26.79;45.32;95485.75;5027071;28;20242;-67
2022/07/03 03:11:47;;;;;;;0.57;0.57;;;;;;;26.52;46.63;95494.59;5012060;28;20197;-67
2022/07/03 03:14:19;;;;;;;1.83;1.30;;;;;;;26.24;47.47;95481.13;5013747;28;20198;-68
2022/07/03 03:16:51;;;;;;;1.17;1.07;;;;;;;26.32;47.09;95484.78;5035271;28;20205;-67
2022/07/03 03:19:22;;;;;;;1.47;1.37;;;;;;;26.38;46.73;95486.91;5014751;28;20233;-68
2022/07/03 03:22:10;;;;;;;0.47;0.47;;;;;;;26.25;47.12;95498.81;5044461;28;20212;-67
2022/07/03 03:24:37;;;;;;;2.80;1.70;;;;;;;26.00;47.92;95491.91;5042914;28;20715;-68
2022/07/03 03:27:05;;;;;;;1.47;1.37;;;;;;;26.21;47.55;95497.91;5030002;28;20236;-67
2022/07/03 03:29:32;;;;;;;2.73;1.00;;;;;;;25.83;48.26;95502.88;5023842;28;20198;-67
2022/07/03 03:31:59;;;;;;;1.67;1.57;;;;;;;25.69;48.61;95507.81;5036590;28;20264;-68
2022/07/03 03:34:32;;;;;;;1.80;1.17;;;;;;;25.69;48.53;95497.81;5011972;28;20201;-68
2022/07/03 03:36:59;;;;;;;0.80;0.80;;;;;;;25.67;48.60;95504.66;5012307;28;20194;-68
2022/07/03 03:39:27;;;;;;;1.07;0.97;;;;;;;25.73;48.50;95496.03;5012145;28;20225;-67
2022/07/03 03:41:54;;;;;;;0.90;0.90;;;;;;;25.80;48.23;95493.56;5044543;28;20255;-67
2022/07/03 03:44:21;;;;;;;0.80;0.80;;;;;;;25.81;48.74;95505.09;5043013;28;20204;-67
2022/07/03 03:46:50;;;;;;;0.63;0.63;;;;;;;25.97;48.23;95497.94;5051394;28;20603;-68
2022/07/03 03:49:17;;;;;;;1.23;0.90;;;;;;;25.72;49.15;95496.38;5031699;28;20225;-68
2022/07/03 03:51:44;;;;;;;0.97;0.93;;;;;;;25.82;48.69;95512.06;5015173;28;20296;-67
2022/07/03 03:54:11;;;;;;;1.80;1.70;;;;;;;26.06;48.20;95506.66;5051569;28;20243;-68
2022/07/03 03:56:38;;;;;;;1.20;1.07;;;;;;;26.31;47.41;95508.22;5023299;28;20192;-67
2022/07/03 03:59:05;;;;;;;0.60;0.60;;;;;;;26.34;47.48;95502.16;5051073;28;20754;-68
2022/07/03 04:01:31;;;;;;;2.10;0.93;;;;;;;26.32;47.43;95501.69;5047218;28;20211;-69
2022/07/03 04:03:59;;;;;;;1.10;1.03;;;;;;;26.25;47.60;95498.03;5027684;28;20628;-66
2022/07/03 04:06:26;;;;;;;1.53;1.43;;;;;;;26.13;47.81;95496.13;5037006;28;20247;-67
2022/07/03 04:08:53;;;;;;;2.27;0.73;;;;;;;25.66;48.97;95500.41;5025002;28;20190;-68
2022/07/03 04:11:20;;;;;;;0.70;0.70;;;;;;;26.03;48.03;95496.59;5016787;28;20197;-68
2022/07/03 04:13:47;;;;;;;0.87;0.87;;;;;;;26.16;47.81;95505.44;5019710;28;20248;-68
2022/07/03 04:16:13;;;;;;;1.30;1.10;;;;;;;26.23;48.11;95501.06;5046583;28;20196;-67
2022/07/03 04:18:40;;;;;;;0.80;0.80;;;;;;;26.01;48.82;95504.19;5041083;28;20227;-68
2022/07/03 04:21:08;;;;;;;0.77;0.77;;;;;;;26.09;48.81;95497.97;5046643;28;20663;-68
2022/07/03 04:23:34;;;;;;;1.30;0.87;;;;;;;26.12;48.79;95499.16;5050834;28;20197;-68
2022/07/03 04:26:07;;;;;;;1.40;1.10;;;;;;;26.09;48.73;95489.09;5049928;28;20255;-67
2022/07/03 04:28:41;;;;;;;0.80;0.70;;;;;;;26.10;48.89;95501.41;5031051;28;20201;-69
2022/07/03 04:31:08;;;;;;;3.43;0.93;;;;;;;26.11;49.15;95495.72;5016529;28;20633;-68
2022/07/03 04:33:35;;;;;;;0.80;0.80;;;;;;;25.46;50.71;95487.88;5037356;28;20200;-67
2022/07/03 04:36:01;;;;;;;0.97;0.97;;;;;;;25.62;50.97;95486.13;5025017;28;20202;-68
2022/07/03 04:38:30;;;;;;;1.33;1.23;;;;;;;25.86;50.43;95486.06;5048216;28;20228;-69
2022/07/03 04:40:57;;;;;;;0.73;0.50;;;;;;;25.73;51.23;95482.63;5050749;28;20200;-68
2022/07/03 04:43:24;;;;;;;1.23;1.13;;;;;;;25.80;51.08;95490.13;5043556;28;20202;-68
2022/07/03 04:45:51;;;;;;;1.43;0.70;;;;;;;26.10;49.93;95491.44;5029874;28;20227;-67
2022/07/03 04:48:18;;;;;;;2.27;1.87;;;;;;;26.05;50.16;95497.06;5034347;28;20201;-67
2022/07/03 04:50:44;;;;;;;1.13;1.13;;;;;;;26.20;49.55;95496.38;5030380;28;20259;-68
2022/07/03 04:53:11;;;;;;;1.77;1.67;;;;;;;25.68;51.34;95495.47;5044005;28;20204;-68
2022/07/03 04:55:38;;;;;;;1.20;1.10;;;;;;;25.72;51.43;95507.13;5010469;28;20296;-68
2022/07/03 04:58:05;;;;;;;1.53;1.43;;;;;;;25.88;51.07;95510.69;5041435;28;20659;-68
2022/07/03 05:00:32;;;;;;;2.17;1.77;;;;;;;25.86;51.41;95507.56;5042871;28;20262;-69
2022/07/03 05:03:00;;;;;;;1.47;1.40;;;;;;;25.80;52.10;95500.88;5016631;28;20198;-69
2022/07/03 05:05:27;;;;;;;2.53;2.27;;;;;;;26.20;50.49;95491.00;5016646;28;20211;-68
2022/07/03 05:07:54;;;;;;;1.80;1.17;;;;;;;25.91;50.89;95494.69;5017473;28;20742;-68
2022/07/03 05:10:20;;;;;;;1.43;1.23;;;;;;;26.23;49.50;95479.56;5032918;28;20250;-67
2022/07/03 05:12:47;;;;;;;1.50;1.40;;;;;;;26.51;48.72;95491.13;5017985;28;20197;-68
2022/07/03 05:15:14;;;;;;;0.90;0.90;;;;;;;26.34;49.10;95491.41;5039354;28;20196;-67
2022/07/03 05:17:41;;;;;;;3.07;2.77;;;;;;;26.40;49.06;95481.97;5034170;28;20615;-68
2022/07/03 05:22:59;;;;;;;2.20;2.00;;;;;;;26.43;48.78;95485.88;5035533;28;20221;-68
2022/07/03 05:25:27;;;;;;;1.33;1.23;;;;;;;26.25;49.31;95482.69;5049453;28;20410;-68
2022/07/03 05:27:54;;;;;;;1.13;1.03;;;;;;;26.33;49.46;95489.06;5049462;28;20201;-67
2022/07/03 05:30:23;;;;;;;1.27;1.17;;;;;;;26.61;48.11;95490.63;5049839;28;20189;-68
2022/07/03 05:32:50;;;;;;;1.57;1.43;;;;;;;26.70;47.76;95493.97;5021005;28;20256;-68
2022/07/03 05:35:17;;;;;;;0.77;0.77;;;;;;;26.79;47.28;95489.25;5022497;28;20206;-68
2022/07/03 05:37:44;;;;;;;4.57;2.67;;;;;;;26.42;48.43;95490.47;5022122;28;20622;-68
2022/07/03 05:40:12;;;;;;;0.80;0.80;;;;;;;26.90;47.43;95490.31;5048059;28;20208;-69
2022/07/03 05:42:39;;;;;;;1.23;1.13;;;;;;;26.18;49.91;95495.94;5037924;28;20258;-69
2022/07/03 05:45:06;;;;;;;0.90;0.90;;;;;;;26.31;49.46;95507.41;5047097;28;20291;-67
2022/07/03 05:47:33;;;;;;;1.47;1.37;;;;;;;26.08;49.89;95504.44;5030639;28;20200;-68
2022/07/03 05:50:01;;;;;;;0.97;0.83;;;;;;;26.52;48.98;95505.34;5037550;28;20196;-68
2022/07/03 05:52:28;;;;;;;0.70;0.70;;;;;;;26.81;48.65;95495.06;5017430;28;20204;-68
2022/07/03 05:54:54;;;;;;;1.70;1.47;;;;;;;26.95;48.21;95498.13;5036716;28;20209;-68
2022/07/03 05:57:21;;;;;;;1.17;1.17;;;;;;;26.92;48.49;95496.13;5028731;28;20192;-69
2022/07/03 05:59:48;;;;;;;5.80;2.67;;;;;;;26.45;50.18;95502.44;5021073;28;20233;-68
2022/07/03 06:02:15;;;;;;;2.37;1.60;;;;;;;26.71;49.16;95503.63;5040661;28;20257;-67
2022/07/03 06:04:42;;;;;;;1.57;1.47;;;;;;;27.10;47.92;95506.59;5029261;28;20304;-65
2022/07/03 06:07:08;;;;;;;3.80;1.80;;;;;;;26.82;49.19;95507.38;5015537;28;20193;-65
2022/07/03 06:09:35;;;;;;;2.90;1.87;;;;;;;27.21;47.38;95491.50;5008711;28;20256;-67
2022/07/03 06:12:02;;;;;;;2.57;1.20;;;;;;;26.66;49.58;95503.81;5042750;28;20657;-65
2022/07/03 06:14:30;;;;;;;1.17;1.17;;;;;;;26.56;50.73;95503.53;5038403;28;20201;-65
2022/07/03 06:16:56;;;;;;;0.83;0.83;;;;;;;27.33;47.73;95503.00;5014335;28;20255;-66
2022/07/03 06:19:23;;;;;;;0.47;0.47;;;;;;;27.35;46.86;95505.34;5020143;28;20295;-65
2022/07/03 06:21:50;;;;;;;0.77;0.77;;;;;;;26.88;48.01;95491.75;5022256;28;20197;-66
2022/07/03 06:24:17;;;;;;;0.73;0.73;;;;;;;27.69;46.54;95507.31;5016689;28;20198;-65
2022/07/03 06:26:44;;;;;;;0.70;0.70;;;;;;;27.72;45.53;95509.31;5040092;28;20232;-65
2022/07/03 06:29:11;;;;;;;0.47;0.47;;;;;;;27.11;46.46;95513.50;5031494;28;20735;-66
2022/07/03 06:31:37;;;;;;;3.43;1.47;;;;;;;26.93;48.11;95516.50;5024120;28;20194;-65
2022/07/03 06:34:04;;;;;;;1.20;1.10;;;;;;;27.43;46.15;95504.38;5047745;28;20748;-65
2022/07/03 06:36:31;;;;;;;1.70;1.27;;;;;;;27.61;45.21;95503.66;5022063;28;20206;-66
2022/07/03 06:38:58;;;;;;;1.10;1.00;;;;;;;27.60;46.10;95498.63;5035785;28;20650;-64
2022/07/03 06:41:24;;;;;;;1.70;1.60;;;;;;;27.44;45.61;95501.34;5029764;28;20193;-66
2022/07/03 06:43:51;;;;;;;2.10;1.63;;;;;;;27.87;46.41;95509.31;5044365;28;20259;-66
2022/07/03 06:46:18;;;;;;;4.53;2.60;;;;;;;28.01;44.82;95497.31;5037384;28;20196;-67
2022/07/03 06:48:45;;;;;;;1.70;0.93;;;;;;;28.06;44.27;95495.13;5034466;28;20668;-65
2022/07/03 06:51:11;;;;;;;1.27;0.67;;;;;;;27.91;45.12;95504.00;5044303;28;20197;-66
2022/07/03 06:53:42;;;;;;;3.50;1.03;;;;;;;27.94;44.23;95490.63;5045012;28;20629;-65
2022/07/03 06:56:09;;;;;;;0.80;0.80;;;;;;;27.67;45.56;95498.81;5012097;28;20197;-65
2022/07/03 06:58:36;;;;;;;2.43;1.30;;;;;;;27.54;46.40;95500.03;5051426;28;20351;-66
2022/07/03 07:01:03;;;;;;;0.60;0.60;;;;;;;27.40;47.18;95500.47;5038960;28;20267;-65
2022/07/03 07:03:30;;;;;;;0.90;0.90;;;;;;;27.58;47.25;95495.50;5045063;28;20215;-65
2022/07/03 07:05:57;;;;;;;4.43;0.97;;;;;;;27.97;45.07;95492.63;5031279;28;20201;-64
2022/07/03 07:08:24;;;;;;;1.27;1.17;;;;;;;28.37;43.56;95484.25;5021983;28;20220;-65
2022/07/03 07:10:51;;;;;;;1.37;1.27;;;;;;;28.47;43.33;95480.19;5026543;28;20216;-65
2022/07/03 07:13:18;;;;;;;0.57;0.57;;;;;;;28.19;43.18;95482.31;5039282;28;20200;-65
2022/07/03 07:15:45;;;;;;;0.73;0.73;;;;;;;27.65;46.48;95480.31;5023767;28;20244;-65
2022/07/03 07:18:11;;;;;;;1.03;1.03;;;;;;;28.05;46.56;95488.16;5051223;28;20258;-66
2022/07/03 07:20:38;;;;;;;2.93;1.17;;;;;;;27.95;46.39;95489.53;5026798;28;20280;-66
2022/07/03 07:23:05;;;;;;;1.40;0.87;;;;;;;28.71;43.47;95486.13;5047440;28;20334;-66
2022/07/03 07:25:32;;;;;;;0.87;0.73;;;;;;;28.01;44.24;95491.94;5029983;28;20732;-66
2022/07/03 07:27:58;;;;;;;2.40;1.07;;;;;;;28.54;44.50;95478.47;5043796;28;20215;-64
2022/07/03 07:30:25;;;;;;;1.03;1.03;;;;;;;28.58;44.45;95479.31;5050839;28;20258;-65
2022/07/03 07:32:52;;;;;;;0.90;0.90;;;;;;;29.10;42.92;95472.59;5021869;28;20198;-64
2022/07/03 07:35:20;;;;;;;0.83;0.83;;;;;;;28.74;42.26;95471.94;5037844;28;20232;-65
2022/07/03 07:37:48;;;;;;;0.60;0.60;;;;;;;28.93;42.62;95468.44;5050269;28;20295;-64
2022/07/03 07:40:15;;;;;;;0.50;0.50;;;;;;;28.78;42.83;95470.09;5015053;28;20230;-68
2022/07/03 07:42:42;;;;;;;0.70;0.70;;;;;;;28.55;43.98;95463.88;5035200;28;20212;-67
2022/07/03 07:45:10;;;;;;;0.70;0.70;;;;;;;29.12;43.15;95476.53;5010362;28;20272;-69
2022/07/03 07:47:37;;;;;;;1.00;0.90;;;;;;;29.03;43.14;95477.88;5023955;28;20698;-66
2022/07/03 07:50:05;;;;;;;0.70;0.70;;;;;;;29.66;42.81;95468.16;5050385;28;20205;-64
2022/07/03 07:52:32;;;;;;;0.73;0.73;;;;;;;29.08;43.75;95469.47;5022351;28;20199;-63
2022/07/03 07:54:58;;;;;;;0.87;0.87;;;;;;;29.90;42.71;95462.38;5028033;28;20224;-66
2022/07/03 07:57:32;;;;;;;1.47;1.37;;;;;;;29.57;40.60;95471.13;5031014;28;20196;-65
2022/07/03 07:59:59;;;;;;;2.07;1.87;;;;;;;29.94;42.22;95463.22;5035503;28;20634;-68
2022/07/03 08:07:56;;;;;;;4.63;1.20;;;;;;;29.44;40.92;95460.84;5017553;28;20565;-68
2022/07/03 08:10:23;;;;;;;5.47;4.97;;;;;;;29.59;39.79;95447.22;5010516;28;20202;-66
2022/07/03 08:12:50;;;;;;;1.33;1.23;;;;;;;29.96;40.51;95455.53;5026972;28;20667;-67
2022/07/03 08:15:17;;;;;;;5.63;2.37;;;;;;;29.78;41.60;95446.41;5020137;28;20213;-64
2022/07/03 08:17:44;;;;;;;6.37;2.13;;;;;;;29.68;40.13;95455.84;5009948;28;20205;-68
2022/07/03 08:20:11;;;;;;;1.20;1.10;;;;;;;29.82;41.08;95449.91;5026623;28;20224;-63
2022/07/03 08:22:37;;;;;;;1.20;1.17;;;;;;;29.85;41.16;95454.59;5035534;28;20209;-67
2022/07/03 08:25:04;;;;;;;0.90;0.87;;;;;;;30.39;40.24;95452.25;5043043;28;20804;-64
2022/07/03 08:27:31;;;;;;;0.90;0.90;;;;;;;30.15;41.10;95447.28;5042957;28;20234;-63
2022/07/03 08:29:58;;;;;;;0.50;0.50;;;;;;;30.83;40.68;95455.91;5030998;28;20196;-66
2022/07/03 08:32:24;;;;;;;1.60;0.77;;;;;;;30.04;38.87;95445.56;5019098;28;20703;-65
2022/07/03 08:34:51;;;;;;;0.53;0.50;;;;;;;30.29;40.78;95452.91;5016207;28;20250;-63
2022/07/03 08:37:18;;;;;;;1.23;0.80;;;;;;;30.78;39.27;95458.91;5039867;28;20193;-64
2022/07/03 08:39:45;;;;;;;0.77;0.77;;;;;;;30.59;38.23;95456.38;5027842;28;20279;-64
2022/07/03 08:42:15;;;;;;;1.13;1.03;;;;;;;30.58;38.76;95449.38;5024688;28;20195;-65
2022/07/03 08:44:43;;;;;;;0.70;0.70;;;;;;;30.81;39.45;95452.78;5049010;28;20227;-65
2022/07/03 08:47:12;;;;;;;0.23;0.23;;;;;;;31.44;38.77;95446.47;5036081;28;20227;-64
2022/07/03 08:49:41;;;;;;;0.83;0.83;;;;;;;31.01;38.16;95449.88;5020331;28;20264;-68
2022/07/03 08:52:10;;;;;;;2.20;1.33;;;;;;;30.96;39.36;95436.69;5033588;28;20194;-65
2022/07/03 08:54:37;;;;;;;3.10;1.63;;;;;;;31.19;39.75;95440.00;5035889;28;20200;-63
2022/07/03 08:57:05;;;;;;;3.20;1.87;;;;;;;31.50;38.18;95439.53;5009593;28;20194;-65
2022/07/03 08:59:37;;;;;;;0.63;0.63;;;;;;;31.70;36.80;95438.91;5035982;28;20654;-64
2022/07/03 09:02:06;;;;;;;0.73;0.73;;;;;;;31.66;37.31;95431.94;5035877;28;20687;-64
2022/07/03 09:04:34;;;;;;;2.57;1.20;;;;;;;31.85;35.97;95434.38;5034547;28;20188;-66
2022/07/03 09:07:03;;;;;;;0.90;0.90;;;;;;;31.66;38.03;95442.75;5038689;28;20204;-62
2022/07/03 09:09:32;;;;;;;3.93;2.90;;;;;;;31.38;38.30;95437.13;5013089;28;20201;-65
2022/07/03 09:11:59;;;;;;;0.60;0.60;;;;;;;31.95;37.64;95438.34;5039952;28;20564;-69
2022/07/03 09:14:27;;;;;;;1.03;0.93;;;;;;;32.37;36.29;95433.13;5020789;28;20303;-65
2022/07/03 09:16:54;;;;;;;1.27;1.07;;;;;;;32.15;36.50;95434.97;5048980;28;20196;-64
2022/07/03 09:19:42;;;;;;;0.90;0.90;;;;;;;32.07;36.50;95430.66;5032883;28;20336;-63
2022/07/03 09:22:27;;;;;;;0.70;0.70;;;;;;;32.65;35.77;95423.19;5039210;28;20204;-64
2022/07/03 09:25:08;;;;;;;1.40;1.23;;;;;;;32.94;34.93;95423.28;5043608;28;20185;-65
2022/07/03 09:27:36;;;;;;;0.87;0.87;;;;;;;32.87;34.11;95424.00;5041522;28;20204;-64
2022/07/03 09:30:05;;;;;;;0.63;0.63;;;;;;;33.14;34.10;95427.22;5011490;28;20225;-62
2022/07/03 09:32:41;;;;;;;0.67;0.67;;;;;;;33.19;33.43;95418.66;5025192;28;20198;-64
2022/07/03 09:35:25;;;;;;;0.60;0.60;;;;;;;33.06;35.62;95420.19;5031653;28;20197;-63
2022/07/03 09:38:03;;;;;;;0.57;0.57;;;;;;;33.26;34.74;95418.66;5027922;28;20205;-64
2022/07/03 09:40:54;;;;;;;1.43;1.00;;;;;;;33.28;33.13;95413.63;5048581;28;20285;-64
2022/07/03 09:43:31;;;;;;;0.50;0.50;;;;;;;33.12;32.59;95410.50;5014378;28;20204;-66
2022/07/03 09:46:00;;;;;;;0.87;0.50;;;;;;;33.16;33.01;95409.34;5015738;28;20639;-63
2022/07/03 09:48:30;;;;;;;1.20;1.20;;;;;;;33.08;32.81;95412.44;5047648;28;20671;-67
2022/07/03 09:51:19;;;;;;;0.30;0.30;;;;;;;33.54;33.62;95414.03;5046948;28;20196;-63
2022/07/03 09:54:04;;;;;;;1.27;0.87;;;;;;;33.70;33.23;95405.50;5021790;28;20664;-63
2022/07/03 09:56:38;;;;;;;1.00;0.77;;;;;;;33.65;32.66;95400.44;5010961;28;20208;-61
2022/07/03 09:59:08;;;;;;;0.70;0.70;;;;;;;33.58;32.79;95406.66;5038244;28;20188;-65
2022/07/03 10:01:42;;;;;;;4.33;3.37;;;;;;;33.86;32.92;95402.34;5020184;28;20672;-64
2022/07/03 10:04:22;;;;;;;1.93;1.77;;;;;;;33.76;33.67;95410.13;5028980;28;20196;-64
2022/07/03 10:06:58;;;;;;;1.80;0.87;;;;;;;33.98;32.82;95402.72;5037487;28;20727;-62
2022/07/03 10:09:30;;;;;;;0.80;0.80;;;;;;;33.91;32.31;95391.84;5012303;28;20258;-64
2022/07/03 10:11:59;;;;;;;1.00;1.00;;;;;;;33.47;29.99;95391.50;5028137;28;20222;-62
2022/07/03 10:14:30;;;;;;;0.60;0.60;;;;;;;33.54;31.28;95389.56;5014432;28;20212;-63
2022/07/03 10:17:00;;;;;;;0.50;0.50;;;;;;;33.49;31.04;95389.97;5037735;28;20200;-62
2022/07/03 10:19:29;;;;;;;1.03;1.03;;;;;;;33.71;30.36;95380.63;5035718;28;20259;-63
2022/07/03 10:22:02;;;;;;;4.27;3.20;;;;;;;33.84;27.69;95377.47;5024114;28;20230;-65
2022/07/03 10:24:30;;;;;;;1.67;0.90;;;;;;;34.37;29.06;95384.34;5021945;28;20202;-63
2022/07/03 10:26:58;;;;;;;0.60;0.60;;;;;;;33.87;28.65;95382.16;5016484;28;20229;-62
2022/07/03 10:29:27;;;;;;;0.67;0.67;;;;;;;34.04;28.30;95375.91;5026419;28;20655;-63
2022/07/03 10:31:57;;;;;;;0.70;0.70;;;;;;;33.78;26.90;95374.38;5028626;28;20595;-62
2022/07/03 10:34:26;;;;;;;0.60;0.60;;;;;;;34.09;28.48;95367.34;5023740;28;20189;-63
2022/07/03 10:37:02;;;;;;;0.73;0.73;;;;;;;34.18;28.76;95382.06;5044730;28;20254;-66
2022/07/03 10:39:35;;;;;;;0.33;0.33;;;;;;;33.82;30.37;95372.44;5030095;28;20200;-67
2022/07/03 10:45:13;;;;;;;0.70;0.70;;;;;;;33.94;28.51;95372.03;5042550;28;20192;-63
2022/07/03 10:47:49;;;;;;;1.40;1.30;;;;;;;33.68;25.82;95369.75;5045569;28;20197;-62
2022/07/03 10:50:23;;;;;;;0.60;0.60;;;;;;;34.44;27.33;95367.19;5045499;28;20220;-64
2022/07/03 10:52:51;;;;;;;0.47;0.47;;;;;;;34.27;27.52;95357.19;5044471;28;20291;-63
2022/07/03 10:55:19;;;;;;;0.20;0.20;;;;;;;34.34;26.99;95360.63;5024923;28;20676;-63
2022/07/03 10:58:10;;;;;;;0.53;0.53;;;;;;;34.76;27.25;95356.94;5023753;28;20981;-62
2022/07/03 11:00:54;;;;;;;1.97;1.73;;;;;;;34.72;25.67;95351.53;5050957;28;21081;-63
2022/07/03 11:03:54;;;;;;;2.67;2.47;;;;;;;35.35;26.67;95349.50;5031152;28;20287;-63
2022/07/03 11:06:42;;;;;;;0.83;0.83;;;;;;;35.81;27.06;95343.63;5018357;28;20205;-61
2022/07/03 11:09:10;;;;;;;0.67;0.67;;;;;;;35.57;27.28;95342.72;5016960;28;20651;-63
2022/07/03 11:11:57;;;;;;;0.50;0.50;;;;;;;35.60;26.01;95333.75;5023505;28;20205;-61
2022/07/03 11:14:28;;;;;;;0.40;0.40;;;;;;;35.75;26.17;95334.38;5044249;28;20671;-62
2022/07/03 11:17:21;;;;;;;0.57;0.57;;;;;;;35.97;25.25;95331.00;5041382;28;20284;-63
2022/07/03 11:22:53;;;;;;;0.43;0.43;;;;;;;36.36;24.51;95317.69;5048967;28;20208;-63
2022/07/03 11:25:22;;;;;;;0.63;0.63;;;;;;;35.84;24.35;95313.59;5032490;28;20253;-63
2022/07/03 11:27:49;;;;;;;0.77;0.77;;;;;;;35.43;23.89;95318.31;5026519;28;20263;-63
2022/07/03 11:30:16;;;;;;;1.10;0.70;;;;;;;36.06;25.42;95312.19;5018516;28;20189;-61
2022/07/03 11:32:51;;;;;;;1.03;0.97;;;;;;;35.81;25.86;95317.13;5043823;28;20277;-64
2022/07/03 11:35:57;;;;;;;0.43;0.43;;;;;;;36.26;25.09;95304.91;5023288;28;20195;-65
2022/07/03 11:38:29;;;;;;;1.20;0.83;;;;;;;35.91;24.64;95310.84;5029626;28;20202;-65
2022/07/03 11:40:58;;;;;;;9.53;7.43;;;;;;;36.07;25.55;95319.22;5040508;28;20711;-63
2022/07/03 11:43:25;;;;;;;1.30;1.20;;;;;;;35.98;24.24;95310.75;5049138;28;20192;-65
2022/07/03 11:45:52;;;;;;;1.33;1.10;;;;;;;35.73;24.90;95299.28;5035504;28;20213;-62
2022/07/03 11:48:22;;;;;;;0.93;0.93;;;;;;;36.64;25.20;95298.16;5023458;28;20194;-64
2022/07/03 11:50:49;;;;;;;0.93;0.87;;;;;;;36.74;25.12;95301.16;5036155;28;20208;-62
2022/07/03 11:53:16;;;;;;;0.67;0.67;;;;;;;36.44;25.11;95297.28;5035657;28;20291;-62
2022/07/03 11:56:02;;;;;;;1.13;0.80;;;;;;;36.59;24.72;95290.44;5027566;28;20587;-62
2022/07/03 11:58:47;;;;;;;1.07;0.97;;;;;;;36.00;24.69;95302.16;5032421;28;20234;-62
2022/07/03 12:01:22;;;;;;;0.60;0.60;;;;;;;36.24;23.90;95290.91;5049428;28;20282;-63
2022/07/03 12:03:50;;;;;;;0.40;0.40;;;;;;;35.56;23.64;95295.59;5010045;28;20243;-63
2022/07/03 12:06:17;;;;;;;0.57;0.57;;;;;;;36.17;23.96;95291.00;5022700;28;20560;-62